createdAt,value
2023-02-12T00:01:41.004Z,27.27
2023-02-12T00:04:09.510Z,27.40
2023-02-12T00:06:40.392Z,27.35
2023-02-12T00:09:08.873Z,27.42
2023-02-12T00:11:37.635Z,27.50
2023-02-12T00:14:06.046Z,27.54
2023-02-12T00:16:34.699Z,27.56
2023-02-12T00:19:03.188Z,27.55
2023-02-12T00:21:31.921Z,27.56
2023-02-12T00:24:00.374Z,27.54
2023-02-12T00:26:29.342Z,27.67
2023-02-12T00:28:57.829Z,27.58
2023-02-12T00:31:28.951Z,27.54
2023-02-12T00:34:01.394Z,27.62
2023-02-12T00:36:31.338Z,27.58
2023-02-12T00:39:00.992Z,27.70
2023-02-12T00:41:30.162Z,27.71
2023-02-12T00:43:58.895Z,27.68
2023-02-12T00:46:28.871Z,27.62
2023-02-12T00:48:57.477Z,27.59
2023-02-12T00:51:26.336Z,27.69
2023-02-12T00:53:54.704Z,27.65
2023-02-12T00:56:23.415Z,27.50
2023-02-12T00:58:51.848Z,27.72
2023-02-12T01:01:20.542Z,27.72
2023-02-12T01:03:49.022Z,27.95
2023-02-12T01:06:17.949Z,27.78
2023-02-12T01:08:51.954Z,27.89
2023-02-12T01:11:20.829Z,28.42
2023-02-12T01:13:50.489Z,27.99
2023-02-12T01:16:24.368Z,28.31
2023-02-12T01:18:55.634Z,28.66
2023-02-12T01:21:28.187Z,28.14
2023-02-12T01:23:57.366Z,28.53
2023-02-12T01:26:26.404Z,28.87
2023-02-12T01:29:03.902Z,29.22
2023-02-12T01:31:36.496Z,28.97
2023-02-12T01:34:06.003Z,29.24
2023-02-12T01:36:35.476Z,28.86
2023-02-12T01:39:06.524Z,29.06
2023-02-12T01:41:39.478Z,28.75
2023-02-12T01:44:19.554Z,28.95
2023-02-12T01:47:05.249Z,29.30
2023-02-12T01:49:42.180Z,28.81
2023-02-12T01:52:22.822Z,29.15
2023-02-12T01:54:51.380Z,28.94
2023-02-12T01:57:21.280Z,29.42
2023-02-12T01:59:51.111Z,29.14
2023-02-12T02:02:19.950Z,29.33
2023-02-12T02:05:02.377Z,28.58
2023-02-12T02:07:31.707Z,28.39
2023-02-12T02:10:00.199Z,28.81
2023-02-12T02:12:49.369Z,28.56
2023-02-12T02:15:18.739Z,28.61
2023-02-12T02:18:09.465Z,29.21
2023-02-12T02:21:24.081Z,29.07
2023-02-12T02:24:17.256Z,29.48
2023-02-12T02:27:19.574Z,28.97
2023-02-12T02:30:34.398Z,28.79
2023-02-12T02:33:32.766Z,29.25
2023-02-12T02:36:26.307Z,29.46
2023-02-12T02:39:39.074Z,29.34
2023-02-12T02:42:23.898Z,29.34
2023-02-12T02:45:38.165Z,29.46
2023-02-12T02:48:24.958Z,29.16
2023-02-12T02:51:19.386Z,29.51
2023-02-12T02:53:52.331Z,28.71
2023-02-12T02:56:21.615Z,29.80
2023-02-12T02:58:59.949Z,29.34
2023-02-12T03:01:48.337Z,28.82
2023-02-12T03:04:31.198Z,29.79
2023-02-12T03:07:04.719Z,29.80
2023-02-12T03:09:44.192Z,29.20
2023-02-12T03:12:19.776Z,29.66
2023-02-12T03:15:37.250Z,29.43
2023-02-12T03:18:10.472Z,29.60
2023-02-12T03:20:51.182Z,29.46
2023-02-12T03:23:30.099Z,29.23
2023-02-12T03:26:10.331Z,29.32
2023-02-12T03:28:39.097Z,29.81
2023-02-12T03:31:50.814Z,28.99
2023-02-12T03:34:38.679Z,29.65
2023-02-12T03:37:25.090Z,29.32
2023-02-12T03:39:59.917Z,29.50
2023-02-12T03:43:09.321Z,29.54
2023-02-12T03:46:48.233Z,29.77
2023-02-12T03:49:32.599Z,29.80
2023-02-12T03:52:01.062Z,29.02
2023-02-12T03:54:29.749Z,29.29
2023-02-12T03:57:12.679Z,29.81
2023-02-12T03:59:41.289Z,29.54
2023-02-12T04:02:09.714Z,29.40
2023-02-12T04:04:38.612Z,29.20
2023-02-12T04:07:07.145Z,29.41
2023-02-12T04:09:35.845Z,29.61
2023-02-12T04:12:15.969Z,29.55
2023-02-12T04:15:06.611Z,29.02
2023-02-12T04:17:44.827Z,29.04
2023-02-12T04:21:11.992Z,29.33
2023-02-12T04:23:54.012Z,29.05
2023-02-12T04:26:57.852Z,29.67
2023-02-12T04:29:49.733Z,29.27
2023-02-12T04:32:34.577Z,29.70
2023-02-12T04:35:29.437Z,29.65
2023-02-12T04:38:08.952Z,28.87
2023-02-12T04:40:39.857Z,29.07
2023-02-12T04:43:08.892Z,29.17
2023-02-12T04:45:37.604Z,29.31
2023-02-12T04:48:06.411Z,29.24
2023-02-12T04:50:43.563Z,29.30
2023-02-12T04:53:12.226Z,28.96
2023-02-12T04:55:40.571Z,29.24
2023-02-12T04:58:09.400Z,29.13
2023-02-12T05:00:37.781Z,29.06
2023-02-12T05:03:06.551Z,29.16
2023-02-12T05:05:35.209Z,29.76
2023-02-12T05:08:03.879Z,29.25
2023-02-12T05:10:32.233Z,29.89
2023-02-12T05:13:00.949Z,28.81
2023-02-12T05:15:29.396Z,28.75
2023-02-12T05:17:58.158Z,28.41
2023-02-12T05:20:26.628Z,28.36
2023-02-12T05:22:55.961Z,28.26
2023-02-12T05:25:24.263Z,28.16
2023-02-12T05:27:52.972Z,28.05
2023-02-12T05:30:21.589Z,27.92
2023-02-12T05:32:50.280Z,27.75
2023-02-12T05:35:18.669Z,27.64
2023-02-12T05:37:47.269Z,27.20
2023-02-12T05:40:16.174Z,27.37
2023-02-12T05:42:44.937Z,27.09
2023-02-12T05:45:13.321Z,27.15
2023-02-12T05:47:42.157Z,26.98
2023-02-12T05:50:11.198Z,26.80
2023-02-12T05:52:39.882Z,26.92
2023-02-12T05:55:08.676Z,26.75
2023-02-12T05:57:37.374Z,26.52
2023-02-12T06:00:06.864Z,26.58
2023-02-12T06:02:41.033Z,26.55
2023-02-12T06:05:09.610Z,26.59
2023-02-12T06:07:38.620Z,26.29
2023-02-12T06:10:08.267Z,26.35
2023-02-12T06:12:37.341Z,26.29
2023-02-12T06:15:06.071Z,26.05
2023-02-12T06:17:35.179Z,26.10
2023-02-12T06:20:04.034Z,26.01
2023-02-12T06:22:32.869Z,26.09
2023-02-12T06:25:01.270Z,25.84
2023-02-12T06:27:30.008Z,25.68
2023-02-12T06:29:58.457Z,25.68
2023-02-12T06:32:27.202Z,25.60
2023-02-12T06:34:55.744Z,25.68
2023-02-12T06:37:24.460Z,25.51
2023-02-12T06:39:52.893Z,25.62
2023-02-12T06:42:21.564Z,25.64
2023-02-12T06:44:52.684Z,25.36
2023-02-12T06:47:21.838Z,25.56
2023-02-12T06:49:50.204Z,25.52
2023-02-12T06:52:18.907Z,25.29
2023-02-12T06:54:47.317Z,25.28
2023-02-12T06:57:16.042Z,25.29
2023-02-12T06:59:44.424Z,25.33
2023-02-12T07:02:13.108Z,25.02
2023-02-12T07:04:41.588Z,25.40
2023-02-12T07:07:10.327Z,25.43
2023-02-12T07:09:38.726Z,25.53
2023-02-12T07:12:07.635Z,25.52
2023-02-12T07:14:36.063Z,25.68
2023-02-12T07:17:05.681Z,25.71
2023-02-12T07:19:34.065Z,25.79
2023-02-12T07:22:02.791Z,25.97
2023-02-12T07:24:31.226Z,25.99
2023-02-12T07:26:59.891Z,25.91
2023-02-12T07:29:28.205Z,26.15
2023-02-12T07:31:57.078Z,26.12
2023-02-12T07:34:25.464Z,26.05
2023-02-12T07:36:54.136Z,26.25
2023-02-12T07:39:22.615Z,26.26
2023-02-12T07:41:51.329Z,26.31
2023-02-12T07:44:19.815Z,26.45
2023-02-12T07:46:49.339Z,26.47
2023-02-12T07:49:21.654Z,26.64
2023-02-12T07:51:50.616Z,26.60
2023-02-12T07:54:18.958Z,26.53
2023-02-12T07:56:47.691Z,26.61
2023-02-12T07:59:17.882Z,26.74
2023-02-12T08:01:48.962Z,26.73
2023-02-12T08:04:20.268Z,26.83
2023-02-12T08:06:51.360Z,26.91
2023-02-12T08:09:22.886Z,26.87
2023-02-12T08:11:51.775Z,27.01
2023-02-12T08:14:21.318Z,27.12
2023-02-12T08:16:50.836Z,26.99
2023-02-12T08:19:22.730Z,26.99
2023-02-12T08:21:54.484Z,27.18
2023-02-12T08:24:23.439Z,27.06
2023-02-12T08:26:52.551Z,27.06
2023-02-12T08:29:26.521Z,27.21
2023-02-12T08:32:02.787Z,27.12
2023-02-12T08:34:34.176Z,27.00
2023-02-12T08:37:03.541Z,27.38
2023-02-12T08:39:32.065Z,27.35
2023-02-12T08:42:01.774Z,27.37
2023-02-12T08:44:30.431Z,27.47
2023-02-12T08:46:59.167Z,27.53
2023-02-12T08:49:29.515Z,27.32
2023-02-12T08:51:59.179Z,27.71
2023-02-12T08:54:28.725Z,27.73
2023-02-12T08:56:58.926Z,27.61
2023-02-12T08:59:27.372Z,27.82
2023-02-12T09:01:56.068Z,27.87
2023-02-12T09:04:28.448Z,28.00
2023-02-12T09:06:57.274Z,27.93
2023-02-12T09:09:25.638Z,27.93
2023-02-12T09:11:54.356Z,28.02
2023-02-12T09:14:24.606Z,27.85
2023-02-12T09:16:54.432Z,28.08
2023-02-12T09:19:23.126Z,28.19
2023-02-12T09:21:56.413Z,28.15
2023-02-12T09:24:28.332Z,28.10
2023-02-12T09:26:57.163Z,28.02
2023-02-12T09:29:25.620Z,27.78
2023-02-12T09:31:54.625Z,27.95
2023-02-12T09:34:23.287Z,27.71
2023-02-12T09:36:52.103Z,27.77
2023-02-12T09:39:20.440Z,27.72
2023-02-12T09:42:52.554Z,27.54
2023-02-12T09:45:26.801Z,27.67
2023-02-12T09:48:07.561Z,27.58
2023-02-12T09:50:57.112Z,27.64
2023-02-12T09:53:29.843Z,27.64
2023-02-12T09:55:58.824Z,27.54
2023-02-12T09:58:37.033Z,27.59
2023-02-12T10:01:16.491Z,27.60
2023-02-12T10:03:46.496Z,27.64
2023-02-12T10:06:26.161Z,27.73
2023-02-12T10:09:35.924Z,27.79
2023-02-12T10:12:33.130Z,27.74
2023-02-12T10:15:39.503Z,27.75
2023-02-12T10:18:45.320Z,27.83
2023-02-12T10:21:45.098Z,27.76
2023-02-12T10:24:47.608Z,27.83
2023-02-12T10:27:18.299Z,27.78
2023-02-12T10:29:47.603Z,27.87
2023-02-12T10:32:31.408Z,27.89
2023-02-12T10:34:59.613Z,27.71
2023-02-12T10:37:53.194Z,27.67
2023-02-12T10:40:30.139Z,27.55
2023-02-12T10:42:59.084Z,27.54
2023-02-12T10:45:35.286Z,27.32
2023-02-12T10:48:19.039Z,27.17
2023-02-12T10:51:32.613Z,27.07
2023-02-12T10:54:38.152Z,26.78
2023-02-12T10:57:24.364Z,26.61
2023-02-12T10:59:57.502Z,26.57
2023-02-12T11:02:29.770Z,26.51
2023-02-12T11:04:59.948Z,26.51
2023-02-12T11:07:28.759Z,26.15
2023-02-12T11:09:57.677Z,26.20
2023-02-12T11:12:48.742Z,25.93
2023-02-12T11:15:22.570Z,26.13
2023-02-12T11:18:05.328Z,26.05
2023-02-12T11:20:49.221Z,25.89
2023-02-12T11:23:45.664Z,25.97
2023-02-12T11:26:20.440Z,25.76
2023-02-12T11:29:16.689Z,25.76
2023-02-12T11:31:59.929Z,25.85
2023-02-12T11:34:30.152Z,25.90
2023-02-12T11:36:59.065Z,26.11
2023-02-12T11:39:39.111Z,26.08
2023-02-12T11:42:22.665Z,26.15
2023-02-12T11:44:58.485Z,26.21
2023-02-12T11:47:34.232Z,26.32
2023-02-12T11:50:29.547Z,26.63
2023-02-12T11:53:42.145Z,26.57
2023-02-12T11:56:13.948Z,26.66
2023-02-12T11:58:42.841Z,26.77
2023-02-12T12:01:30.803Z,26.68
2023-02-12T12:04:04.001Z,26.97
2023-02-12T12:06:53.847Z,26.63
2023-02-12T12:09:36.071Z,26.69
2023-02-12T12:12:14.073Z,26.63
2023-02-12T12:15:16.749Z,26.53
2023-02-12T12:18:17.984Z,26.45
2023-02-12T12:20:55.768Z,26.13
2023-02-12T12:23:41.053Z,26.21
2023-02-12T12:26:21.053Z,25.61
2023-02-12T12:29:18.961Z,25.10
2023-02-12T12:31:57.386Z,25.05
2023-02-12T12:34:27.911Z,24.84
2023-02-12T12:37:12.795Z,24.87
2023-02-12T12:39:41.592Z,24.89
2023-02-12T12:42:43.932Z,24.85
2023-02-12T12:45:43.646Z,25.02
2023-02-12T12:48:46.342Z,25.28
2023-02-12T12:51:47.586Z,25.18
2023-02-12T12:54:32.043Z,25.65
2023-02-12T12:57:40.120Z,25.88
2023-02-12T13:01:07.067Z,26.37
2023-02-12T13:03:59.363Z,26.31
2023-02-12T13:06:37.303Z,26.72
2023-02-12T13:09:24.216Z,26.56
2023-02-12T13:12:43.942Z,26.54
2023-02-12T13:15:20.532Z,26.84
2023-02-12T13:18:13.977Z,26.77
2023-02-12T13:21:18.175Z,26.76
2023-02-12T13:24:08.271Z,26.39
2023-02-12T13:26:59.436Z,26.13
2023-02-12T13:29:39.297Z,25.59
2023-02-12T13:32:29.331Z,25.93
2023-02-12T13:34:58.512Z,25.64
2023-02-12T13:37:46.895Z,25.03
2023-02-12T13:40:27.901Z,24.22
2023-02-12T13:43:28.099Z,24.19
2023-02-12T13:46:09.176Z,23.65
2023-02-12T13:49:22.406Z,23.48
2023-02-12T13:52:13.672Z,23.26
2023-02-12T13:55:01.711Z,22.93
2023-02-12T13:57:30.438Z,23.13
2023-02-12T14:00:00.051Z,23.65
2023-02-12T14:02:39.332Z,23.95
2023-02-12T14:05:29.613Z,24.24
2023-02-12T14:08:05.858Z,24.03
2023-02-12T14:10:38.360Z,24.06
2023-02-12T14:13:13.014Z,23.95
2023-02-12T14:15:45.140Z,23.99
2023-02-12T14:18:36.648Z,23.91
2023-02-12T14:21:14.200Z,24.13
2023-02-12T14:23:44.960Z,23.83
2023-02-12T14:26:14.845Z,23.76
2023-02-12T14:28:55.077Z,24.04
2023-02-12T14:31:35.383Z,24.26
2023-02-12T14:34:07.850Z,24.51
2023-02-12T14:36:41.628Z,24.00
2023-02-12T14:39:22.482Z,23.83
2023-02-12T14:42:06.392Z,24.24
2023-02-12T14:44:59.158Z,24.18
2023-02-12T14:47:30.439Z,24.17
2023-02-12T14:50:20.220Z,24.12
2023-02-12T14:52:58.112Z,23.92
2023-02-12T14:55:34.540Z,24.16
2023-02-12T14:58:06.333Z,24.12
2023-02-12T15:00:40.380Z,24.10
2023-02-12T15:03:14.763Z,24.30
2023-02-12T15:05:58.151Z,24.24
2023-02-12T15:09:01.471Z,24.40
2023-02-12T15:11:47.759Z,24.41
2023-02-12T15:14:40.629Z,24.48
2023-02-12T15:17:10.284Z,24.73
2023-02-12T15:19:47.832Z,24.66
2023-02-12T15:22:42.299Z,24.75
2023-02-12T15:25:31.086Z,24.84
2023-02-12T15:28:36.641Z,24.60
2023-02-12T15:31:09.549Z,25.00
2023-02-12T15:33:45.830Z,25.20
2023-02-12T15:36:21.419Z,25.14
2023-02-12T15:38:56.272Z,25.21
2023-02-12T15:41:33.233Z,25.06
2023-02-12T15:44:04.735Z,25.33
2023-02-12T15:46:33.281Z,25.30
2023-02-12T15:49:03.583Z,25.25
2023-02-12T15:51:39.881Z,25.54
2023-02-12T15:54:08.632Z,25.49
2023-02-12T15:56:38.033Z,25.52
2023-02-12T15:59:06.923Z,26.08
2023-02-12T16:01:35.931Z,26.29
2023-02-12T16:04:06.938Z,26.04
2023-02-12T16:06:36.961Z,26.05
2023-02-12T16:09:17.290Z,26.39
2023-02-12T16:11:47.200Z,26.58
2023-02-12T16:14:35.251Z,26.67
2023-02-12T16:17:03.765Z,26.76
2023-02-12T16:19:37.283Z,26.66
2023-02-12T16:22:14.605Z,26.56
2023-02-12T16:24:53.556Z,26.76
2023-02-12T16:27:25.677Z,26.56
2023-02-12T16:30:04.461Z,26.63
2023-02-12T16:32:38.482Z,26.60
2023-02-12T16:35:10.214Z,26.54
2023-02-12T16:37:38.659Z,26.48
2023-02-12T16:40:13.258Z,26.41
2023-02-12T16:42:47.666Z,26.59
2023-02-12T16:45:28.742Z,26.43
2023-02-12T16:48:09.544Z,26.46
2023-02-12T16:50:54.573Z,26.48
2023-02-12T16:53:31.733Z,26.42
2023-02-12T16:56:01.321Z,26.25
2023-02-12T16:58:29.900Z,26.24
2023-02-12T17:00:59.137Z,26.21
2023-02-12T17:03:27.843Z,26.21
2023-02-12T17:05:57.145Z,26.28
2023-02-12T17:08:26.144Z,26.26
2023-02-12T17:10:55.070Z,26.23
2023-02-12T17:13:23.524Z,26.58
2023-02-12T17:15:58.307Z,26.39
2023-02-12T17:18:27.802Z,26.47
2023-02-12T17:21:02.236Z,26.87
2023-02-12T17:23:31.065Z,27.02
2023-02-12T17:25:59.970Z,27.11
2023-02-12T17:28:28.568Z,27.26
2023-02-12T17:30:58.474Z,27.19
2023-02-12T17:33:27.864Z,27.44
2023-02-12T17:35:58.954Z,27.35
2023-02-12T17:38:27.419Z,27.18
2023-02-12T17:40:56.624Z,27.33
2023-02-12T17:43:25.365Z,27.37
2023-02-12T17:45:54.295Z,27.28
2023-02-12T17:48:25.026Z,27.13
2023-02-12T17:50:57.155Z,27.10
2023-02-12T17:53:25.870Z,26.90
2023-02-12T17:55:54.964Z,27.09
2023-02-12T17:58:23.526Z,26.84
2023-02-12T18:00:52.449Z,26.93
2023-02-12T18:03:21.017Z,26.75
2023-02-12T18:05:49.884Z,26.63
2023-02-12T18:08:18.634Z,26.35
2023-02-12T18:10:47.516Z,26.50
2023-02-12T18:13:15.965Z,26.47
2023-02-12T18:15:44.806Z,26.46
2023-02-12T18:18:13.405Z,26.92
2023-02-12T18:20:42.297Z,26.88
2023-02-12T18:23:11.039Z,27.19
2023-02-12T18:25:43.585Z,27.11
2023-02-12T18:28:12.333Z,27.15
2023-02-12T18:30:43.381Z,27.24
2023-02-12T18:33:12.699Z,27.15
2023-02-12T18:35:41.972Z,27.26
2023-02-12T18:38:10.775Z,27.45
2023-02-12T18:40:42.429Z,27.49
2023-02-12T18:43:11.002Z,27.57
2023-02-12T18:45:40.360Z,27.51
2023-02-12T18:48:09.527Z,27.56
2023-02-12T18:50:38.761Z,27.75
2023-02-12T18:53:07.211Z,28.02
2023-02-12T18:55:39.151Z,27.89
2023-02-12T18:58:07.513Z,27.89
2023-02-12T19:00:36.521Z,28.07
2023-02-12T19:03:05.011Z,27.93
2023-02-12T19:05:33.794Z,28.10
2023-02-12T19:08:02.243Z,28.19
2023-02-12T19:10:31.172Z,28.08
2023-02-12T19:12:59.578Z,28.09
2023-02-12T19:15:28.118Z,27.86
2023-02-12T19:17:56.566Z,27.84
2023-02-12T19:20:25.095Z,28.01
2023-02-12T19:22:53.381Z,27.75
2023-02-12T19:25:22.228Z,27.59
2023-02-12T19:27:50.501Z,27.41
2023-02-12T19:30:19.702Z,27.38
2023-02-12T19:32:48.008Z,27.26
2023-02-12T19:35:16.648Z,27.08
2023-02-12T19:37:44.966Z,27.26
2023-02-12T19:40:14.339Z,27.23
2023-02-12T19:42:42.638Z,27.36
2023-02-12T19:45:11.302Z,27.21
2023-02-12T19:47:39.745Z,27.38
2023-02-12T19:50:08.873Z,27.43
2023-02-12T19:52:37.315Z,27.48
2023-02-12T19:55:06.482Z,27.60
2023-02-12T19:57:37.076Z,27.57
2023-02-12T20:00:08.498Z,27.94
2023-02-12T20:02:36.999Z,27.81
2023-02-12T20:05:06.146Z,27.74
2023-02-12T20:07:34.477Z,28.11
2023-02-12T20:10:03.378Z,28.00
2023-02-12T20:12:31.724Z,28.12
2023-02-12T20:15:02.790Z,28.22
2023-02-12T20:17:32.544Z,28.15
2023-02-12T20:20:01.296Z,28.24
2023-02-12T20:22:29.693Z,28.22
2023-02-12T20:24:59.392Z,28.36
2023-02-12T20:27:28.581Z,28.45
2023-02-12T20:29:57.345Z,28.42
2023-02-12T20:32:25.779Z,28.58
2023-02-12T20:34:54.720Z,28.48
2023-02-12T20:37:23.032Z,28.55
2023-02-12T20:39:52.130Z,28.51
2023-02-12T20:42:20.545Z,28.45
2023-02-12T20:44:49.315Z,28.44
2023-02-12T20:47:17.647Z,28.33
2023-02-12T20:49:46.368Z,28.15
2023-02-12T20:52:14.888Z,28.08
2023-02-12T20:54:43.702Z,27.97
2023-02-12T20:57:12.407Z,27.85
2023-02-12T20:59:42.441Z,27.59
2023-02-12T21:02:12.242Z,27.62
2023-02-12T21:04:41.100Z,27.47
2023-02-12T21:07:09.385Z,27.48
2023-02-12T21:09:38.013Z,27.73
2023-02-12T21:12:06.485Z,27.51
2023-02-12T21:14:35.112Z,27.59
2023-02-12T21:17:03.424Z,27.76
2023-02-12T21:19:32.181Z,27.75
2023-02-12T21:22:00.590Z,27.69
2023-02-12T21:24:29.231Z,27.84
2023-02-12T21:26:57.816Z,27.79
2023-02-12T21:29:27.644Z,27.94
2023-02-12T21:31:56.083Z,27.81
2023-02-12T21:34:24.721Z,27.99
2023-02-12T21:36:55.460Z,28.01
2023-02-12T21:39:27.788Z,27.91
2023-02-12T21:42:02.594Z,28.17
2023-02-12T21:44:32.908Z,28.23
2023-02-12T21:47:01.224Z,28.33
2023-02-12T21:49:30.000Z,28.25
2023-02-12T21:52:02.235Z,28.32
2023-02-12T21:54:31.376Z,28.19
2023-02-12T21:56:59.871Z,28.37
2023-02-12T21:59:31.755Z,28.51
2023-02-12T22:02:00.890Z,28.45
2023-02-12T22:04:30.046Z,28.53
2023-02-12T22:06:59.796Z,28.68
2023-02-12T22:09:28.366Z,28.78
2023-02-12T22:11:57.169Z,28.66
2023-02-12T22:14:25.905Z,28.85
2023-02-12T22:16:54.145Z,28.69
2023-02-12T22:19:23.014Z,28.64
2023-02-12T22:21:51.923Z,29.07
2023-02-12T22:24:20.750Z,28.92
2023-02-12T22:26:49.049Z,28.93
2023-02-12T22:29:17.972Z,29.02
2023-02-12T22:31:46.881Z,28.89
2023-02-12T22:34:17.992Z,29.03
2023-02-12T22:36:46.488Z,28.92
2023-02-12T22:39:15.568Z,29.01
2023-02-12T22:41:43.865Z,28.96
2023-02-12T22:44:13.432Z,29.09
2023-02-12T22:46:43.125Z,29.04
2023-02-12T22:49:11.862Z,29.37
2023-02-12T22:51:40.426Z,29.26
2023-02-12T22:54:13.898Z,29.21
2023-02-12T22:56:42.503Z,29.19
2023-02-12T22:59:11.991Z,29.02
2023-02-12T23:01:40.589Z,29.17
2023-02-12T23:04:15.349Z,28.99
2023-02-12T23:06:44.095Z,29.16
2023-02-12T23:09:15.644Z,29.13
2023-02-12T23:11:44.156Z,29.07
2023-02-12T23:14:13.046Z,29.02
2023-02-12T23:16:41.509Z,28.91
2023-02-12T23:19:10.565Z,28.98
2023-02-12T23:21:39.180Z,28.94
2023-02-12T23:24:08.180Z,28.98
2023-02-12T23:26:36.859Z,29.11
2023-02-12T23:29:05.665Z,29.12
2023-02-12T23:31:34.297Z,29.13
2023-02-12T23:34:03.411Z,29.14
2023-02-12T23:36:31.916Z,29.18
2023-02-12T23:39:00.664Z,29.18
2023-02-12T23:41:29.140Z,29.30
2023-02-12T23:43:58.590Z,29.08
2023-02-12T23:46:27.011Z,29.20
2023-02-12T23:48:55.924Z,29.26
2023-02-12T23:51:24.474Z,29.19
2023-02-12T23:53:53.300Z,29.30
2023-02-12T23:56:21.747Z,29.20
2023-02-12T23:58:50.461Z,29.29
